createdAt,value
2023-02-19T00:01:54.715Z,7.83
2023-02-19T00:03:57.468Z,7.90
2023-02-19T00:06:01.610Z,6.78
2023-02-19T00:08:03.250Z,8.02
2023-02-19T00:10:05.032Z,6.57
2023-02-19T00:12:06.766Z,7.50
2023-02-19T00:14:14.441Z,7.82
2023-02-19T00:16:19.209Z,7.00
2023-02-19T00:18:20.770Z,6.60
2023-02-19T00:20:22.348Z,6.22
2023-02-19T00:22:23.950Z,6.85
2023-02-19T00:24:25.782Z,6.93
2023-02-19T00:26:28.272Z,5.57
2023-02-19T00:28:29.937Z,7.10
2023-02-19T00:30:32.983Z,6.53
2023-02-19T00:32:34.585Z,6.43
2023-02-19T00:34:36.285Z,6.30
2023-02-19T00:36:39.773Z,5.33
2023-02-19T00:38:43.073Z,8.23
2023-02-19T00:40:44.596Z,5.80
2023-02-19T00:42:46.160Z,7.03
2023-02-19T00:44:47.729Z,6.17
2023-02-19T00:46:50.621Z,5.90
2023-02-19T00:48:52.634Z,5.07
2023-02-19T00:50:54.163Z,5.40
2023-02-19T00:52:55.690Z,4.80
2023-02-19T00:54:57.277Z,5.23
2023-02-19T00:56:58.715Z,5.65
2023-02-19T00:59:00.369Z,5.70
2023-02-19T01:01:02.289Z,5.22
2023-02-19T01:03:05.261Z,5.05
2023-02-19T01:05:07.147Z,4.83
2023-02-19T01:07:10.134Z,4.93
2023-02-19T01:09:11.820Z,4.60
2023-02-19T01:11:14.773Z,5.03
2023-02-19T01:13:17.004Z,4.63
2023-02-19T01:15:18.752Z,4.77
2023-02-19T01:17:20.392Z,4.67
2023-02-19T01:19:23.357Z,5.63
2023-02-19T01:21:26.644Z,4.67
2023-02-19T01:23:28.186Z,4.28
2023-02-19T01:25:29.881Z,5.25
2023-02-19T01:27:31.451Z,4.30
2023-02-19T01:29:33.308Z,4.63
2023-02-19T01:31:35.149Z,4.50
2023-02-19T01:33:36.712Z,4.97
2023-02-19T01:35:40.125Z,4.43
2023-02-19T01:37:41.665Z,4.88
2023-02-19T01:39:43.337Z,4.17
2023-02-19T01:41:44.874Z,4.73
2023-02-19T01:43:58.628Z,4.22
2023-02-19T01:46:00.632Z,4.10
2023-02-19T01:48:07.638Z,4.70
2023-02-19T01:50:09.342Z,4.55
2023-02-19T01:52:18.646Z,5.93
2023-02-19T01:54:23.390Z,4.10
2023-02-19T01:56:27.024Z,3.67
2023-02-19T01:58:31.638Z,4.10
2023-02-19T02:00:33.967Z,3.67
2023-02-19T02:02:36.185Z,4.30
2023-02-19T02:04:38.022Z,5.00
2023-02-19T02:06:47.939Z,4.53
2023-02-19T02:08:54.896Z,4.55
2023-02-19T02:10:57.490Z,4.10
2023-02-19T02:12:59.052Z,4.10
2023-02-19T02:15:00.790Z,3.83
2023-02-19T02:17:11.289Z,3.37
2023-02-19T02:19:30.478Z,3.60
2023-02-19T02:21:53.904Z,7.25
2023-02-19T02:24:11.869Z,3.40
2023-02-19T02:26:28.417Z,2.70
2023-02-19T02:28:50.009Z,3.30
2023-02-19T02:30:56.343Z,3.67
2023-02-19T02:33:04.552Z,3.33
2023-02-19T02:35:10.144Z,3.22
2023-02-19T02:37:13.184Z,3.97
2023-02-19T02:39:18.741Z,3.03
2023-02-19T02:41:21.249Z,3.58
2023-02-19T02:43:22.943Z,5.60
2023-02-19T02:45:28.235Z,3.53
2023-02-19T02:47:33.332Z,3.35
2023-02-19T02:49:35.559Z,2.97
2023-02-19T02:51:41.314Z,2.83
2023-02-19T02:53:48.966Z,3.63
2023-02-19T02:55:52.656Z,3.00
2023-02-19T02:57:54.637Z,3.17
2023-02-19T02:59:56.751Z,3.45
2023-02-19T03:02:02.674Z,3.72
2023-02-19T03:04:11.000Z,2.75
2023-02-19T03:06:17.183Z,3.88
2023-02-19T03:08:23.892Z,2.60
2023-02-19T03:10:31.047Z,5.50
2023-02-19T03:12:35.714Z,2.70
2023-02-19T03:14:41.841Z,2.50
2023-02-19T03:16:46.279Z,4.63
2023-02-19T03:18:51.898Z,3.70
2023-02-19T03:20:58.008Z,7.07
2023-02-19T03:23:01.073Z,5.57
2023-02-19T03:25:07.228Z,8.50
2023-02-19T03:27:12.798Z,3.17
2023-02-19T03:29:14.860Z,3.72
2023-02-19T03:31:21.225Z,3.30
2023-02-19T03:33:27.012Z,1.90
2023-02-19T03:35:33.154Z,2.35
2023-02-19T03:37:39.674Z,2.33
2023-02-19T03:39:41.483Z,2.65
2023-02-19T03:41:50.148Z,5.67
2023-02-19T03:43:57.457Z,2.58
2023-02-19T03:46:09.534Z,2.07
2023-02-19T03:48:22.026Z,1.70
2023-02-19T03:50:28.952Z,1.85
2023-02-19T03:52:39.835Z,2.10
2023-02-19T03:54:50.432Z,2.95
2023-02-19T03:56:58.545Z,2.35
2023-02-19T03:59:06.730Z,2.10
2023-02-19T04:01:19.686Z,2.03
2023-02-19T04:03:27.678Z,4.75
2023-02-19T04:05:31.833Z,2.60
2023-02-19T04:07:37.851Z,2.75
2023-02-19T04:09:46.173Z,2.25
2023-02-19T04:11:49.823Z,2.57
2023-02-19T04:13:57.640Z,2.30
2023-02-19T04:16:06.739Z,2.73
2023-02-19T04:18:15.025Z,2.45
2023-02-19T04:20:19.812Z,3.70
2023-02-19T04:22:22.422Z,2.47
2023-02-19T04:24:29.961Z,4.30
2023-02-19T04:26:34.246Z,2.45
2023-02-19T04:28:36.112Z,2.45
2023-02-19T04:30:37.782Z,2.60
2023-02-19T04:32:39.682Z,3.97
2023-02-19T04:34:41.287Z,3.25
2023-02-19T04:36:42.863Z,2.95
2023-02-19T04:38:44.452Z,2.63
2023-02-19T04:40:46.148Z,4.18
2023-02-19T04:42:49.027Z,3.13
2023-02-19T04:44:50.538Z,3.85
2023-02-19T04:46:52.163Z,2.63
2023-02-19T04:48:53.772Z,3.10
2023-02-19T04:50:55.752Z,3.95
2023-02-19T04:52:57.542Z,4.22
2023-02-19T04:54:59.128Z,4.00
2023-02-19T04:57:00.719Z,4.35
2023-02-19T04:59:04.024Z,3.55
2023-02-19T05:01:05.972Z,3.50
2023-02-19T05:03:07.720Z,3.95
2023-02-19T05:05:09.356Z,3.87
2023-02-19T05:07:10.911Z,4.43
2023-02-19T05:09:12.590Z,3.45
2023-02-19T05:11:14.383Z,4.30
2023-02-19T05:13:16.038Z,4.07
2023-02-19T05:15:19.057Z,4.35
2023-02-19T05:17:22.671Z,4.00
2023-02-19T05:19:24.211Z,3.90
2023-02-19T05:21:25.796Z,4.33
2023-02-19T05:23:28.080Z,4.00
2023-02-19T05:25:29.657Z,4.43
2023-02-19T05:27:31.692Z,4.38
2023-02-19T05:29:33.334Z,4.28
2023-02-19T05:31:36.442Z,4.05
2023-02-19T05:33:38.286Z,4.00
2023-02-19T05:35:44.554Z,3.90
2023-02-19T05:37:46.118Z,4.43
2023-02-19T05:39:48.566Z,4.90
2023-02-19T05:41:50.168Z,4.60
2023-02-19T05:43:52.434Z,4.38
2023-02-19T05:45:58.094Z,5.85
2023-02-19T05:48:01.599Z,4.35
2023-02-19T05:50:03.180Z,4.80
2023-02-19T05:52:05.289Z,5.25
2023-02-19T05:54:06.879Z,5.88
2023-02-19T05:56:24.340Z,4.03
2023-02-19T05:58:26.038Z,4.72
2023-02-19T06:00:27.920Z,3.97
2023-02-19T06:02:29.482Z,4.68
2023-02-19T06:04:32.424Z,6.55
2023-02-19T06:06:34.076Z,4.72
2023-02-19T06:08:35.629Z,4.25
2023-02-19T06:10:38.312Z,4.93
2023-02-19T06:12:40.001Z,5.00
2023-02-19T06:14:41.762Z,4.35
2023-02-19T06:16:43.447Z,4.20
2023-02-19T06:18:45.323Z,6.18
2023-02-19T06:20:48.321Z,4.70
2023-02-19T06:22:49.909Z,4.28
2023-02-19T06:24:51.527Z,5.10
2023-02-19T06:26:53.134Z,4.40
2023-02-19T06:28:54.745Z,4.55
2023-02-19T06:30:58.663Z,4.50
2023-02-19T06:33:00.280Z,5.18
2023-02-19T06:35:02.016Z,4.28
2023-02-19T06:37:05.427Z,4.50
2023-02-19T06:39:07.296Z,4.35
2023-02-19T06:41:10.293Z,3.90
2023-02-19T06:43:13.397Z,5.63
2023-02-19T06:45:14.949Z,4.63
2023-02-19T06:47:16.549Z,4.00
2023-02-19T06:49:18.239Z,4.40
2023-02-19T06:51:20.086Z,4.67
2023-02-19T06:53:23.732Z,6.80
2023-02-19T06:55:25.371Z,4.30
2023-02-19T06:57:26.933Z,5.32
2023-02-19T06:59:30.330Z,5.30
2023-02-19T07:01:33.919Z,4.53
2023-02-19T07:03:35.481Z,5.00
2023-02-19T07:05:37.126Z,4.70
2023-02-19T07:07:38.840Z,4.55
2023-02-19T07:09:41.830Z,5.25
2023-02-19T07:11:43.438Z,5.03
2023-02-19T07:13:45.440Z,5.43
2023-02-19T07:15:46.978Z,5.10
2023-02-19T07:17:48.566Z,4.70
2023-02-19T07:19:50.148Z,4.57
2023-02-19T07:21:51.702Z,5.00
2023-02-19T07:23:53.894Z,5.07
2023-02-19T07:25:57.163Z,4.20
2023-02-19T07:27:58.739Z,5.43
2023-02-19T07:30:00.446Z,5.75
2023-02-19T07:32:02.246Z,4.57
2023-02-19T07:34:03.812Z,5.72
2023-02-19T07:36:07.620Z,5.20
2023-02-19T07:38:09.200Z,6.60
2023-02-19T07:40:10.927Z,4.85
2023-02-19T07:42:13.878Z,6.45
2023-02-19T07:44:27.810Z,6.57
2023-02-19T07:46:29.400Z,6.55
2023-02-19T07:48:31.133Z,6.93
2023-02-19T07:50:32.711Z,8.68
2023-02-19T07:52:34.756Z,6.93
2023-02-19T07:54:36.337Z,6.85
2023-02-19T07:56:37.922Z,8.23
2023-02-19T07:58:41.580Z,7.70
2023-02-19T08:00:43.207Z,5.68
2023-02-19T08:02:44.871Z,6.57
2023-02-19T08:04:47.554Z,6.65
2023-02-19T08:06:49.140Z,6.65
2023-02-19T08:08:50.789Z,6.85
2023-02-19T08:10:52.368Z,4.97
2023-02-19T08:12:57.193Z,5.15
2023-02-19T08:15:00.204Z,4.20
2023-02-19T08:17:01.803Z,4.20
2023-02-19T08:19:06.214Z,5.00
2023-02-19T08:21:07.927Z,4.97
2023-02-19T08:23:10.535Z,4.45
2023-02-19T08:25:12.333Z,4.97
2023-02-19T08:27:13.972Z,4.40
2023-02-19T08:29:15.555Z,5.20
2023-02-19T08:31:18.619Z,5.17
2023-02-19T08:33:21.493Z,4.22
2023-02-19T08:35:30.317Z,6.20
2023-02-19T08:37:31.937Z,4.15
2023-02-19T08:39:33.574Z,4.03
2023-02-19T08:41:35.122Z,5.07
2023-02-19T08:43:36.767Z,4.22
2023-02-19T08:45:39.834Z,4.95
2023-02-19T08:47:42.925Z,5.43
2023-02-19T08:49:44.736Z,5.50
2023-02-19T08:51:46.549Z,3.92
2023-02-19T08:53:48.233Z,4.20
2023-02-19T08:55:49.832Z,3.97
2023-02-19T08:57:54.504Z,5.30
2023-02-19T08:59:56.262Z,9.30
2023-02-19T09:01:58.586Z,3.38
2023-02-19T09:04:01.654Z,3.73
2023-02-19T09:06:03.533Z,7.40
2023-02-19T09:08:05.192Z,5.17
2023-02-19T09:10:10.830Z,5.67
2023-02-19T09:12:13.333Z,7.15
2023-02-19T09:14:14.924Z,4.55
2023-02-19T09:16:16.576Z,6.43
2023-02-19T09:18:18.092Z,6.65
2023-02-19T09:20:21.044Z,7.97
2023-02-19T09:22:22.741Z,4.23
2023-02-19T09:24:24.960Z,5.53
2023-02-19T09:26:27.002Z,5.77
2023-02-19T09:28:29.000Z,3.73
2023-02-19T09:30:30.619Z,9.82
2023-02-19T09:32:32.844Z,6.90
2023-02-19T09:34:34.475Z,5.40
2023-02-19T09:36:40.325Z,6.22
2023-02-19T09:38:42.581Z,5.38
2023-02-19T09:40:44.224Z,6.95
2023-02-19T09:42:45.814Z,5.83
2023-02-19T09:44:50.245Z,4.20
2023-02-19T09:46:54.273Z,4.50
2023-02-19T09:49:02.260Z,7.40
2023-02-19T09:51:07.684Z,4.73
2023-02-19T09:53:17.903Z,4.72
2023-02-19T09:55:33.373Z,7.78
2023-02-19T09:57:36.256Z,5.82
2023-02-19T09:59:42.023Z,7.63
2023-02-19T10:01:44.656Z,5.63
2023-02-19T10:03:48.402Z,5.18
2023-02-19T10:05:50.090Z,5.00
2023-02-19T10:07:54.749Z,4.47
2023-02-19T10:10:01.852Z,4.25
2023-02-19T10:12:11.638Z,4.40
2023-02-19T10:14:17.185Z,4.23
2023-02-19T10:16:23.973Z,4.22
2023-02-19T10:18:28.091Z,6.20
2023-02-19T10:20:29.929Z,5.67
2023-02-19T10:22:33.858Z,4.65
2023-02-19T10:24:38.423Z,4.43
2023-02-19T10:26:41.543Z,4.13
2023-02-19T10:28:43.153Z,4.10
2023-02-19T10:30:48.232Z,4.50
2023-02-19T10:33:09.966Z,6.00
2023-02-19T10:35:13.740Z,6.33
2023-02-19T10:37:18.516Z,5.10
2023-02-19T10:39:40.813Z,4.83
2023-02-19T10:41:44.388Z,6.73
2023-02-19T10:43:55.197Z,3.60
2023-02-19T10:45:58.525Z,7.30
2023-02-19T10:48:02.648Z,7.77
2023-02-19T10:50:04.916Z,4.63
2023-02-19T10:52:14.206Z,3.57
2023-02-19T10:54:18.750Z,3.40
2023-02-19T10:56:24.584Z,5.87
2023-02-19T10:58:27.478Z,5.40
2023-02-19T11:00:30.856Z,4.07
2023-02-19T11:02:33.890Z,3.97
2023-02-19T11:04:35.696Z,4.30
2023-02-19T11:06:37.455Z,3.40
2023-02-19T11:08:51.807Z,6.00
2023-02-19T11:10:55.951Z,3.33
2023-02-19T11:13:00.105Z,2.90
2023-02-19T11:15:19.794Z,3.60
2023-02-19T11:17:24.134Z,3.20
2023-02-19T11:19:30.118Z,4.33
2023-02-19T11:21:31.977Z,5.20
2023-02-19T11:23:37.280Z,3.20
2023-02-19T11:25:46.092Z,4.37
2023-02-19T11:27:55.695Z,6.90
2023-02-19T11:30:33.866Z,5.73
2023-02-19T11:32:37.029Z,3.77
2023-02-19T11:34:38.830Z,3.60
2023-02-19T11:36:41.836Z,3.90
2023-02-19T11:38:43.800Z,3.23
2023-02-19T11:40:52.249Z,4.17
2023-02-19T11:43:00.370Z,3.47
2023-02-19T11:45:17.114Z,3.97
2023-02-19T11:47:47.873Z,5.17
2023-02-19T11:49:58.726Z,2.80
2023-02-19T11:52:22.092Z,4.83
2023-02-19T11:57:41.607Z,6.60
2023-02-19T11:59:55.671Z,5.77
2023-02-19T12:02:13.606Z,3.60
2023-02-19T12:04:43.417Z,5.93
2023-02-19T12:06:55.558Z,4.93
2023-02-19T12:09:21.180Z,3.63
2023-02-19T12:11:44.247Z,5.13
2023-02-19T12:14:05.280Z,3.93
2023-02-19T12:16:22.947Z,5.93
2023-02-19T12:18:47.680Z,2.70
2023-02-19T12:21:03.486Z,6.03
2023-02-19T12:23:31.961Z,3.70
2023-02-19T12:25:57.368Z,6.50
2023-02-19T12:28:33.643Z,4.97
2023-02-19T12:30:56.218Z,5.70
2023-02-19T12:33:36.734Z,4.00
2023-02-19T12:35:52.283Z,3.78
2023-02-19T12:38:09.424Z,4.80
2023-02-19T12:40:28.319Z,7.17
2023-02-19T12:42:47.782Z,3.50
2023-02-19T12:44:57.204Z,5.17
2023-02-19T12:47:01.735Z,2.80
2023-02-19T12:49:10.529Z,4.67
2023-02-19T12:51:21.544Z,7.07
2023-02-19T12:53:42.122Z,6.30
2023-02-19T12:55:46.399Z,4.90
2023-02-19T12:57:51.149Z,4.60
2023-02-19T12:59:57.410Z,7.60
2023-02-19T13:02:07.667Z,3.80
2023-02-19T13:04:19.297Z,4.13
2023-02-19T13:06:35.221Z,3.80
2023-02-19T13:09:03.518Z,5.37
2023-02-19T13:11:10.933Z,3.90
2023-02-19T13:13:23.978Z,5.10
2023-02-19T13:15:34.250Z,6.00
2023-02-19T13:17:44.239Z,6.80
2023-02-19T13:19:51.933Z,7.17
2023-02-19T13:22:08.565Z,3.77
2023-02-19T13:24:17.031Z,3.57
2023-02-19T13:26:50.268Z,5.67
2023-02-19T13:29:08.116Z,4.33
2023-02-19T13:31:29.675Z,6.07
2023-02-19T13:33:44.856Z,3.83
2023-02-19T13:36:03.505Z,6.63
2023-02-19T13:40:22.639Z,5.53
2023-02-19T13:42:26.920Z,4.00
2023-02-19T13:44:30.843Z,5.20
2023-02-19T13:46:38.665Z,4.50
2023-02-19T13:48:44.279Z,6.33
2023-02-19T13:50:46.279Z,6.07
2023-02-19T13:52:48.226Z,6.00
2023-02-19T13:54:49.949Z,3.90
2023-02-19T13:59:35.537Z,3.50
2023-02-19T14:02:10.851Z,4.23
2023-02-19T14:04:20.198Z,5.40
2023-02-19T14:06:21.890Z,7.13
2023-02-19T14:08:48.732Z,3.30
2023-02-19T14:10:53.076Z,3.27
2023-02-19T14:12:54.683Z,5.27
2023-02-19T14:14:57.895Z,5.13
2023-02-19T14:17:01.786Z,4.47
2023-02-19T14:19:04.326Z,3.87
2023-02-19T14:21:14.332Z,5.80
2023-02-19T14:23:22.391Z,3.70
2023-02-19T14:25:49.231Z,3.73
2023-02-19T14:27:53.002Z,4.80
2023-02-19T14:29:54.836Z,8.40
2023-02-19T14:31:58.052Z,3.40
2023-02-19T14:34:01.612Z,3.73
2023-02-19T14:36:05.848Z,4.43
2023-02-19T14:38:15.103Z,3.57
2023-02-19T14:40:21.882Z,5.07
2023-02-19T14:42:26.135Z,4.13
2023-02-19T14:44:30.409Z,3.90
2023-02-19T14:46:35.176Z,3.57
2023-02-19T14:48:42.455Z,3.63
2023-02-19T14:50:48.282Z,7.93
2023-02-19T14:52:56.281Z,6.50
2023-02-19T14:55:03.460Z,7.73
2023-02-19T14:57:10.509Z,3.90
2023-02-19T14:59:24.903Z,3.07
2023-02-19T15:01:27.121Z,5.70
2023-02-19T15:03:35.809Z,6.00
2023-02-19T15:05:38.915Z,3.63
2023-02-19T15:07:44.318Z,5.20
2023-02-19T15:09:49.152Z,3.67
2023-02-19T15:11:50.896Z,5.00
2023-02-19T15:13:57.241Z,5.13
2023-02-19T15:15:59.485Z,8.57
2023-02-19T15:18:02.839Z,5.50
2023-02-19T15:20:11.136Z,3.50
2023-02-19T15:22:19.926Z,4.80
2023-02-19T15:24:21.877Z,4.87
2023-02-19T15:26:30.091Z,7.30
2023-02-19T15:28:34.183Z,5.27
2023-02-19T15:30:35.950Z,6.37
2023-02-19T15:32:37.648Z,5.37
2023-02-19T15:34:39.340Z,3.77
2023-02-19T15:36:41.087Z,3.00
2023-02-19T15:38:44.412Z,6.87
2023-02-19T15:40:47.376Z,4.10
2023-02-19T15:42:49.055Z,4.27
2023-02-19T15:44:55.225Z,5.83
2023-02-19T15:46:59.246Z,6.90
2023-02-19T15:49:06.823Z,9.30
2023-02-19T15:51:13.637Z,3.97
2023-02-19T15:53:18.717Z,3.65
2023-02-19T15:55:33.347Z,5.20
2023-02-19T15:57:41.164Z,3.80
2023-02-19T15:59:46.802Z,4.13
2023-02-19T16:01:48.465Z,8.80
2023-02-19T16:03:50.143Z,4.20
2023-02-19T16:05:59.882Z,5.00
2023-02-19T16:08:16.450Z,7.43
2023-02-19T16:10:21.786Z,6.60
2023-02-19T16:12:24.949Z,3.27
2023-02-19T16:14:31.848Z,7.13
2023-02-19T16:16:38.511Z,11.10
2023-02-19T16:18:45.374Z,7.50
2023-02-19T16:20:47.844Z,7.00
2023-02-19T16:22:50.486Z,6.65
2023-02-19T16:24:54.939Z,5.53
2023-02-19T16:26:57.869Z,7.95
2023-02-19T16:29:00.907Z,5.23
2023-02-19T16:31:04.779Z,8.67
2023-02-19T16:33:33.345Z,6.20
2023-02-19T16:35:36.186Z,5.35
2023-02-19T16:37:40.857Z,6.10
2023-02-19T16:39:45.644Z,7.95
2023-02-19T16:42:13.030Z,4.43
2023-02-19T16:46:45.722Z,3.83
2023-02-19T16:48:47.520Z,6.80
2023-02-19T16:50:49.988Z,5.43
2023-02-19T16:52:52.854Z,6.37
2023-02-19T16:54:54.460Z,5.03
2023-02-19T16:56:56.079Z,6.93
2023-02-19T16:58:57.786Z,6.00
2023-02-19T17:01:00.099Z,4.43
2023-02-19T17:03:07.705Z,8.33
2023-02-19T17:05:09.551Z,5.50
2023-02-19T17:07:13.110Z,6.23
2023-02-19T17:09:14.684Z,12.93
2023-02-19T17:11:28.536Z,5.53
2023-02-19T17:13:30.330Z,4.67
2023-02-19T17:15:37.253Z,5.30
2023-02-19T17:17:44.942Z,8.73
2023-02-19T17:20:13.225Z,9.47
2023-02-19T17:22:14.820Z,7.93
2023-02-19T17:24:16.438Z,6.27
2023-02-19T17:26:19.750Z,4.47
2023-02-19T17:28:21.440Z,5.43
2023-02-19T17:30:26.836Z,6.00
2023-02-19T17:32:28.552Z,4.80
2023-02-19T17:34:30.147Z,6.32
2023-02-19T17:36:33.098Z,4.50
2023-02-19T17:38:34.657Z,7.90
2023-02-19T17:40:36.447Z,4.47
2023-02-19T17:42:38.059Z,5.70
2023-02-19T17:44:39.725Z,4.00
2023-02-19T17:46:44.353Z,4.40
2023-02-19T17:48:46.067Z,6.50
2023-02-19T17:50:47.656Z,7.45
2023-02-19T17:52:50.672Z,4.90
2023-02-19T17:54:52.304Z,5.60
2023-02-19T17:56:53.897Z,4.93
2023-02-19T17:58:56.783Z,4.03
2023-02-19T18:00:58.639Z,7.00
2023-02-19T18:03:00.221Z,5.80
2023-02-19T18:05:01.834Z,8.23
2023-02-19T18:07:03.618Z,6.60
2023-02-19T18:09:06.571Z,5.93
2023-02-19T18:11:08.150Z,8.77
2023-02-19T18:13:09.807Z,6.83
2023-02-19T18:15:16.320Z,5.65
2023-02-19T18:17:17.942Z,7.47
2023-02-19T18:19:19.828Z,6.28
2023-02-19T18:21:23.619Z,7.97
2023-02-19T18:23:25.271Z,5.40
2023-02-19T18:25:28.316Z,11.83
2023-02-19T18:27:29.951Z,6.60
2023-02-19T18:29:32.452Z,6.50
2023-02-19T18:31:35.526Z,6.27
2023-02-19T18:33:37.285Z,9.17
2023-02-19T18:35:38.997Z,8.90
2023-02-19T18:37:40.672Z,7.80
2023-02-19T18:39:43.346Z,8.10
2023-02-19T18:41:50.542Z,9.88
2023-02-19T18:43:52.286Z,5.50
2023-02-19T18:45:53.946Z,6.80
2023-02-19T18:47:55.616Z,9.80
2023-02-19T18:49:58.310Z,8.13
2023-02-19T18:52:00.195Z,10.43
2023-02-19T18:54:01.779Z,10.60
2023-02-19T18:56:03.773Z,19.73
2023-02-19T18:58:06.735Z,7.63
2023-02-19T19:00:09.468Z,7.20
2023-02-19T19:02:14.465Z,9.45
2023-02-19T19:04:16.278Z,8.73
2023-02-19T19:06:17.884Z,9.57
2023-02-19T19:08:19.478Z,7.13
2023-02-19T19:10:22.103Z,7.00
2023-02-19T19:12:23.624Z,7.03
2023-02-19T19:14:29.673Z,8.57
2023-02-19T19:16:31.373Z,7.73
2023-02-19T19:18:32.887Z,10.37
2023-02-19T19:20:34.468Z,7.22
2023-02-19T19:22:36.387Z,6.77
2023-02-19T19:24:37.969Z,7.07
2023-02-19T19:26:43.635Z,8.03
2023-02-19T19:28:45.321Z,7.00
2023-02-19T19:30:48.402Z,8.10
2023-02-19T19:32:51.884Z,6.38
2023-02-19T19:34:54.223Z,7.00
2023-02-19T19:36:55.742Z,7.73
2023-02-19T19:38:57.473Z,5.90
2023-02-19T19:40:59.331Z,6.85
2023-02-19T19:43:00.925Z,8.93
2023-02-19T19:45:02.731Z,8.17
2023-02-19T19:47:05.813Z,9.30
2023-02-19T19:49:07.376Z,4.80
2023-02-19T19:51:09.340Z,8.45
2023-02-19T19:53:11.145Z,10.23
2023-02-19T19:55:12.697Z,6.70
2023-02-19T19:57:15.923Z,6.27
2023-02-19T19:59:20.335Z,7.20
2023-02-19T20:01:21.939Z,7.82
2023-02-19T20:03:24.975Z,9.43
2023-02-19T20:05:26.561Z,6.90
2023-02-19T20:07:28.128Z,8.82
2023-02-19T20:09:29.735Z,7.35
2023-02-19T20:11:31.374Z,8.40
2023-02-19T20:13:32.923Z,5.90
2023-02-19T20:15:34.946Z,6.90
2023-02-19T20:17:36.516Z,9.03
2023-02-19T20:19:39.495Z,8.97
2023-02-19T20:21:44.389Z,9.87
2023-02-19T20:23:46.033Z,7.13
2023-02-19T20:25:47.607Z,6.78
2023-02-19T20:27:49.579Z,6.03
2023-02-19T20:29:51.259Z,7.35
2023-02-19T20:31:53.067Z,8.77
2023-02-19T20:33:54.758Z,5.93
2023-02-19T20:35:57.731Z,7.40
2023-02-19T20:37:59.286Z,10.87
2023-02-19T20:40:00.870Z,7.97
2023-02-19T20:42:02.432Z,8.13
2023-02-19T20:44:04.131Z,9.10
2023-02-19T20:46:05.797Z,8.10
2023-02-19T20:48:07.389Z,8.63
2023-02-19T20:50:09.718Z,9.40
2023-02-19T20:52:14.817Z,8.57
2023-02-19T20:54:16.899Z,8.40
2023-02-19T20:56:18.438Z,7.73
2023-02-19T20:58:21.106Z,8.32
2023-02-19T21:00:23.265Z,9.73
2023-02-19T21:02:26.247Z,7.93
2023-02-19T21:04:28.230Z,7.40
2023-02-19T21:06:29.852Z,7.83
2023-02-19T21:08:32.728Z,8.40
2023-02-19T21:10:34.349Z,12.70
2023-02-19T21:12:35.855Z,14.17
2023-02-19T21:14:37.416Z,12.52
2023-02-19T21:16:39.181Z,10.40
2023-02-19T21:18:40.751Z,5.93
2023-02-19T21:20:42.385Z,6.27
2023-02-19T21:22:47.073Z,6.80
2023-02-19T21:24:50.909Z,7.03
2023-02-19T21:26:52.461Z,9.13
2023-02-19T21:28:54.236Z,6.20
2023-02-19T21:30:55.863Z,5.80
2023-02-19T21:32:57.400Z,10.20
2023-02-19T21:34:59.035Z,8.90
2023-02-19T21:37:00.588Z,6.78
2023-02-19T21:39:02.772Z,10.07
2023-02-19T21:41:06.327Z,8.23
2023-02-19T21:43:07.843Z,9.50
2023-02-19T21:45:09.790Z,9.97
2023-02-19T21:47:11.693Z,12.43
2023-02-19T21:49:13.292Z,8.70
2023-02-19T21:51:14.825Z,9.43
2023-02-19T21:53:16.471Z,11.20
2023-02-19T21:55:18.023Z,7.37
2023-02-19T21:57:21.007Z,8.37
2023-02-19T21:59:22.979Z,11.27
2023-02-19T22:01:27.185Z,9.23
2023-02-19T22:03:28.736Z,6.55
2023-02-19T22:05:30.333Z,9.00
2023-02-19T22:07:31.844Z,7.43
2023-02-19T22:09:33.412Z,9.27
2023-02-19T22:11:34.985Z,10.75
2023-02-19T22:13:38.013Z,8.10
2023-02-19T22:15:39.616Z,7.30
2023-02-19T22:17:41.399Z,9.73
2023-02-19T22:19:42.894Z,8.63
2023-02-19T22:21:44.996Z,8.40
2023-02-19T22:23:47.386Z,7.30
2023-02-19T22:25:49.067Z,7.30
2023-02-19T22:27:50.672Z,6.65
2023-02-19T22:29:53.605Z,7.20
2023-02-19T22:31:55.296Z,10.20
2023-02-19T22:33:56.950Z,14.10
2023-02-19T22:35:58.516Z,7.93
2023-02-19T22:38:00.113Z,12.20
2023-02-19T22:40:01.829Z,6.17
2023-02-19T22:42:03.721Z,6.70
2023-02-19T22:44:05.391Z,9.10
2023-02-19T22:46:12.291Z,6.75
2023-02-19T22:48:19.240Z,10.53
2023-02-19T22:50:26.698Z,9.10
2023-02-19T22:52:28.320Z,5.30
2023-02-19T22:54:29.910Z,7.33
2023-02-19T22:56:31.786Z,7.90
2023-02-19T22:58:33.352Z,7.40
2023-02-19T23:00:35.592Z,6.88
2023-02-19T23:02:40.294Z,7.50
2023-02-19T23:04:41.881Z,12.50
2023-02-19T23:06:44.664Z,6.35
2023-02-19T23:08:46.233Z,7.22
2023-02-19T23:10:47.815Z,6.77
2023-02-19T23:12:49.747Z,6.75
2023-02-19T23:14:51.318Z,8.80
2023-02-19T23:16:52.967Z,7.27
2023-02-19T23:18:55.980Z,8.40
2023-02-19T23:20:57.795Z,7.43
2023-02-19T23:22:59.380Z,8.73
2023-02-19T23:25:01.335Z,8.23
2023-02-19T23:27:03.029Z,7.10
2023-02-19T23:29:04.612Z,6.20
2023-02-19T23:31:06.934Z,6.17
2023-02-19T23:33:08.568Z,7.07
2023-02-19T23:35:11.556Z,8.57
2023-02-19T23:37:13.228Z,9.50
2023-02-19T23:39:16.522Z,8.13
2023-02-19T23:41:18.574Z,11.15
2023-02-19T23:43:20.170Z,9.48
2023-02-19T23:45:21.698Z,9.52
2023-02-19T23:47:23.257Z,7.23
2023-02-19T23:49:24.970Z,8.40
2023-02-19T23:51:27.944Z,5.63
2023-02-19T23:53:29.590Z,7.60
2023-02-19T23:55:33.433Z,6.57
2023-02-19T23:57:34.989Z,8.53
2023-02-19T23:59:36.546Z,7.07
